Tucson, AZ

11:39 AM MST on May 29, 2017 (GMT -0700)
Feldmans | | Change Station

Elev 2389 ft 32.24 °N, 110.97 °W | Updated 12 seconds ago

Clear
Clear
95.4 °F
Feels Like 91 °F
N
4.0
Wind Variable Wind from SE
Gusts 4.9 mph

Today
High -- | Low -- °F
--% Chance of Precip.
Yesterday
High -- | Low -- °F
Precip. -- in
Pressure 29.78 in
Visibility 10.0 miles
Clouds Few 18000 ft
Heat Index 91 °F
Dew Point 30 °F
Humidity 10%
Rainfall 0.00 in
Snow Depth Not available.
5:18 AM 7:24 PM
Waxing Crescent, 21% visible
METAR KDMA 291758Z AUTO 10004KT 10SM FEW180 33/M05 A2992 RMK AO2 SLP085 T03341048 10334 20163 57007 CHINO RWY30 $
Pressure 29.78 in
Visibility 10.0 miles
Clouds Few 18000 ft
Heat Index 91 °F
Dew Point 30 °F
Humidity 10%
Rainfall 0.00 in
Snow Depth Not available.
5:18 AM 7:24 PM
Waxing Crescent, 21% visible
METAR KDMA 291758Z AUTO 10004KT 10SM FEW180 33/M05 A2992 RMK AO2 SLP085 T03341048 10334 20163 57007 CHINO RWY30 $

Get Severe Weather Alerts

Thanks for signing up!

Be on the lookout for a verification email in your inbox.

You'll start receiving the daily forecast at 6 AM.

×

10-Day Weather Forecast

Almanac

Astronomy

May. 29, 2017 Rise Set
Actual Time
Civil Twilight
Nautical Twilight
Astronomical Twilight
Moon
Length of Visible Light
Length of Day
Tomorrow will be .
, % of the Moon is Illuminated

Today's Extremes

State Highs State Lows

Community

WunderPhotos

Category 6

Welcome to Category 6. This is the collective home for Weather Underground's featured writeups by Dr. Jeff Masters (right), Bob Henson (left), Chris Burt, and other regular contributors.

Nearby

Air Quality

  Air Quality AQ Index Pollutant
Not available.

Snow Depth

Station Depth Elevation

Earthquake Activity

City Distance Mag. Time & Date
Minimum magnitude displayed is 2.5.

Coastal Water Temperatures

Place Temperature

Stations

Nearby Weather Stations

Station Location Temp. Windchill Dew Point Humidity Wind Precip. Elev Updated Type
                   

Watches & Warnings

There are currently no watches in effect.